createdAt,value
2023-08-12T00:00:46.780Z,3.83
2023-08-12T00:01:43.520Z,3.70
2023-08-12T00:02:45.265Z,3.88
2023-08-12T00:03:44.380Z,4.32
2023-08-12T00:04:41.124Z,4.43
2023-08-12T00:05:38.232Z,4.18
2023-08-12T00:06:34.910Z,3.90
2023-08-12T00:07:31.859Z,4.05
2023-08-12T00:08:28.727Z,3.80
2023-08-12T00:09:26.058Z,3.85
2023-08-12T00:10:22.783Z,3.67
2023-08-12T00:11:19.958Z,3.90
2023-08-12T00:12:16.621Z,3.63
2023-08-12T00:13:15.598Z,3.92
2023-08-12T00:14:12.292Z,4.00
2023-08-12T00:15:11.577Z,4.25
2023-08-12T00:16:08.471Z,3.95
2023-08-12T00:17:05.248Z,3.78
2023-08-12T00:18:02.266Z,4.00
2023-08-12T00:18:59.526Z,4.00
2023-08-12T00:19:56.152Z,4.38
2023-08-12T00:20:52.830Z,3.83
2023-08-12T00:21:49.470Z,4.50
2023-08-12T00:22:46.146Z,3.78
2023-08-12T00:23:44.046Z,3.85
2023-08-12T00:24:41.312Z,3.63
2023-08-12T00:25:37.964Z,3.17
2023-08-12T00:26:34.658Z,4.00
2023-08-12T00:27:31.354Z,3.95
2023-08-12T00:28:27.991Z,3.95
2023-08-12T00:29:24.668Z,3.90
2023-08-12T00:30:21.463Z,3.78
2023-08-12T00:31:18.232Z,3.97
2023-08-12T00:32:15.100Z,3.60
2023-08-12T00:33:11.855Z,3.67
2023-08-12T00:34:08.532Z,3.60
2023-08-12T00:35:06.607Z,4.15
2023-08-12T00:36:03.509Z,3.75
2023-08-12T00:37:00.274Z,3.42
2023-08-12T00:37:57.010Z,3.97
2023-08-12T00:38:53.730Z,3.75
2023-08-12T00:39:50.399Z,4.00
2023-08-12T00:40:47.075Z,3.50
2023-08-12T00:41:43.820Z,3.80
2023-08-12T00:42:40.609Z,3.75
2023-08-12T00:43:37.266Z,3.90
2023-08-12T00:44:33.954Z,3.63
2023-08-12T00:45:30.769Z,3.58
2023-08-12T00:46:27.607Z,3.85
2023-08-12T00:47:24.389Z,3.33
2023-08-12T00:48:21.128Z,3.67
2023-08-12T00:49:18.326Z,3.67
2023-08-12T00:50:16.687Z,3.85
2023-08-12T00:51:13.447Z,4.05
2023-08-12T00:52:10.254Z,3.97
2023-08-12T00:53:07.806Z,3.53
2023-08-12T00:54:06.618Z,3.78
2023-08-12T00:55:04.181Z,3.55
2023-08-12T00:56:00.894Z,3.50
2023-08-12T00:56:57.564Z,3.40
2023-08-12T00:57:54.287Z,3.60
2023-08-12T00:58:51.176Z,3.72
2023-08-12T00:59:50.256Z,3.88
2023-08-12T01:00:47.201Z,3.45
2023-08-12T01:01:45.206Z,4.00
2023-08-12T01:02:49.361Z,4.00
2023-08-12T01:03:46.815Z,3.97
2023-08-12T01:04:43.557Z,3.33
2023-08-12T01:05:41.270Z,3.78
2023-08-12T01:06:40.860Z,3.58
2023-08-12T01:07:37.684Z,3.42
2023-08-12T01:08:36.597Z,3.80
2023-08-12T01:09:33.344Z,3.55
2023-08-12T01:10:36.086Z,3.75
2023-08-12T01:11:50.863Z,3.55
2023-08-12T01:13:16.646Z,3.65
2023-08-12T01:14:24.829Z,3.33
2023-08-12T01:15:27.333Z,4.03
2023-08-12T01:17:22.658Z,3.53
2023-08-12T01:18:19.892Z,3.72
2023-08-12T01:19:30.607Z,4.00
2023-08-12T01:20:27.885Z,4.00
2023-08-12T01:21:25.986Z,4.00
2023-08-12T01:22:25.216Z,3.90
2023-08-12T01:23:22.343Z,3.90
2023-08-12T01:24:22.592Z,3.90
2023-08-12T01:25:19.276Z,3.60
2023-08-12T01:26:16.094Z,3.60
2023-08-12T01:27:15.061Z,3.28
2023-08-12T01:28:11.946Z,4.05
2023-08-12T01:29:08.905Z,3.85
2023-08-12T01:30:07.244Z,3.90
2023-08-12T01:31:33.052Z,4.10
2023-08-12T01:32:33.668Z,4.00
2023-08-12T01:33:37.951Z,3.33
2023-08-12T01:34:43.672Z,3.80
2023-08-12T01:35:52.717Z,3.75
2023-08-12T01:36:57.719Z,3.85
2023-08-12T01:37:57.179Z,3.85
2023-08-12T01:38:56.961Z,3.47
2023-08-12T01:39:56.314Z,3.35
2023-08-12T01:40:53.665Z,3.75
2023-08-12T01:41:52.493Z,3.97
2023-08-12T01:42:49.599Z,3.70
2023-08-12T01:43:47.312Z,3.47
2023-08-12T01:44:44.081Z,3.40
2023-08-12T01:45:42.629Z,3.78
2023-08-12T01:46:39.302Z,3.78
2023-08-12T01:47:36.038Z,3.25
2023-08-12T01:48:32.829Z,3.38
2023-08-12T01:49:29.791Z,3.83
2023-08-12T01:50:26.940Z,3.95
2023-08-12T01:51:23.632Z,3.40
2023-08-12T01:52:20.313Z,3.55
2023-08-12T01:53:17.130Z,4.00
2023-08-12T01:54:13.794Z,3.25
2023-08-12T01:55:10.491Z,3.28
2023-08-12T01:56:07.240Z,3.65
2023-08-12T01:57:09.875Z,3.53
2023-08-12T01:58:06.913Z,3.28
2023-08-12T01:59:03.689Z,3.40
2023-08-12T02:00:02.049Z,3.65
2023-08-12T02:00:58.713Z,2.97
2023-08-12T02:01:55.365Z,3.25
2023-08-12T02:02:52.312Z,3.22
2023-08-12T02:03:49.226Z,3.08
2023-08-12T02:04:47.566Z,3.10
2023-08-12T02:05:44.757Z,3.47
2023-08-12T02:06:41.525Z,3.05
2023-08-12T02:07:38.196Z,3.40
2023-08-12T02:08:34.937Z,3.65
2023-08-12T02:09:31.919Z,3.55
2023-08-12T02:10:28.745Z,3.55
2023-08-12T02:11:25.460Z,3.47
2023-08-12T02:12:22.181Z,3.33
2023-08-12T02:13:18.947Z,3.80
2023-08-12T02:14:15.808Z,3.65
2023-08-12T02:15:12.470Z,3.38
2023-08-12T02:16:09.822Z,3.63
2023-08-12T02:17:07.155Z,3.30
2023-08-12T02:18:05.239Z,3.50
2023-08-12T02:19:02.047Z,3.38
2023-08-12T02:19:58.813Z,3.45
2023-08-12T02:20:55.510Z,3.63
2023-08-12T02:21:52.196Z,3.65
2023-08-12T02:22:48.887Z,3.35
2023-08-12T02:23:45.649Z,3.95
2023-08-12T02:24:42.313Z,3.63
2023-08-12T02:25:39.030Z,3.63
2023-08-12T02:26:35.874Z,3.65
2023-08-12T02:27:32.581Z,3.55
2023-08-12T02:28:29.266Z,3.47
2023-08-12T02:29:26.128Z,3.95
2023-08-12T02:30:22.896Z,4.18
2023-08-12T02:31:19.965Z,3.60
2023-08-12T02:32:16.772Z,3.90
2023-08-12T02:33:13.563Z,3.80
2023-08-12T02:34:10.885Z,3.55
2023-08-12T02:35:07.892Z,3.65
2023-08-12T02:36:04.889Z,3.70
2023-08-12T02:37:01.567Z,3.90
2023-08-12T02:37:58.200Z,4.18
2023-08-12T02:38:54.882Z,3.97
2023-08-12T02:39:51.559Z,3.90
2023-08-12T02:40:51.660Z,4.15
2023-08-12T02:41:48.365Z,3.75
2023-08-12T02:42:45.015Z,3.80
2023-08-12T02:43:41.711Z,3.78
2023-08-12T02:44:38.493Z,4.10
2023-08-12T02:45:35.350Z,3.85
2023-08-12T02:46:32.043Z,4.13
2023-08-12T02:47:29.273Z,3.83
2023-08-12T02:48:26.041Z,3.83
2023-08-12T02:49:22.714Z,4.05
2023-08-12T02:50:19.507Z,3.83
2023-08-12T02:51:16.234Z,3.78
2023-08-12T02:52:12.915Z,4.05
2023-08-12T02:53:09.577Z,3.67
2023-08-12T02:54:06.541Z,4.30
2023-08-12T02:55:03.321Z,3.67
2023-08-12T02:56:00.068Z,3.38
2023-08-12T02:56:56.760Z,3.63
2023-08-12T02:57:53.521Z,4.18
2023-08-12T02:58:50.326Z,4.18
2023-08-12T02:59:46.985Z,3.90
2023-08-12T03:00:46.447Z,4.05
2023-08-12T03:01:43.547Z,3.60
2023-08-12T03:02:43.890Z,3.70
2023-08-12T03:03:40.594Z,3.90
2023-08-12T03:04:37.274Z,3.92
2023-08-12T03:05:33.947Z,3.60
2023-08-12T03:06:30.610Z,3.78
2023-08-12T03:07:27.272Z,3.90
2023-08-12T03:08:23.953Z,3.80
2023-08-12T03:09:21.430Z,3.70
2023-08-12T03:10:18.344Z,4.18
2023-08-12T03:11:15.122Z,4.18
2023-08-12T03:12:11.854Z,4.00
2023-08-12T03:13:08.924Z,4.20
2023-08-12T03:14:05.678Z,4.10
2023-08-12T03:15:03.533Z,4.15
2023-08-12T03:16:00.243Z,4.20
2023-08-12T03:16:56.952Z,4.30
2023-08-12T03:17:53.689Z,4.00
2023-08-12T03:18:50.368Z,4.55
2023-08-12T03:19:47.051Z,4.75
2023-08-12T03:20:43.709Z,4.80
2023-08-12T03:21:40.396Z,5.20
2023-08-12T03:22:38.386Z,4.97
2023-08-12T03:23:36.996Z,4.60
2023-08-12T03:24:33.655Z,4.43
2023-08-12T03:25:30.315Z,5.10
2023-08-12T03:26:27.164Z,5.00
2023-08-12T03:27:23.958Z,4.75
2023-08-12T03:28:20.632Z,5.05
2023-08-12T03:29:17.413Z,5.25
2023-08-12T03:30:14.180Z,5.28
2023-08-12T03:31:10.905Z,5.35
2023-08-12T03:32:07.647Z,5.00
2023-08-12T03:33:04.699Z,5.50
2023-08-12T03:34:02.082Z,5.18
2023-08-12T03:34:58.881Z,5.13
2023-08-12T03:35:55.603Z,5.70
2023-08-12T03:36:52.289Z,5.63
2023-08-12T03:37:48.924Z,5.50
2023-08-12T03:38:45.738Z,5.40
2023-08-12T03:39:42.485Z,5.18
2023-08-12T03:40:39.970Z,4.78
2023-08-12T03:41:36.625Z,4.93
2023-08-12T03:42:34.100Z,5.13
2023-08-12T03:43:30.857Z,4.78
2023-08-12T03:44:27.516Z,5.20
2023-08-12T03:45:24.187Z,5.13
2023-08-12T03:46:20.918Z,5.43
2023-08-12T03:47:22.929Z,5.30
2023-08-12T03:48:19.791Z,5.50
2023-08-12T03:49:16.489Z,5.43
2023-08-12T03:50:13.226Z,5.07
2023-08-12T03:51:09.948Z,5.22
2023-08-12T03:52:08.277Z,6.28
2023-08-12T03:53:05.800Z,5.35
2023-08-12T03:54:02.460Z,5.10
2023-08-12T03:54:59.196Z,4.60
2023-08-12T03:55:55.882Z,4.90
2023-08-12T03:56:52.545Z,4.85
2023-08-12T03:57:49.183Z,5.00
2023-08-12T03:58:46.510Z,5.20
2023-08-12T03:59:43.158Z,5.38
2023-08-12T04:00:44.132Z,5.18
2023-08-12T04:01:40.870Z,4.95
2023-08-12T04:02:37.533Z,5.60
2023-08-12T04:03:34.271Z,4.90
2023-08-12T04:04:31.192Z,5.22
2023-08-12T04:05:27.930Z,5.40
2023-08-12T04:06:24.644Z,5.32
2023-08-12T04:07:21.381Z,5.28
2023-08-12T04:08:18.125Z,4.78
2023-08-12T04:09:14.905Z,4.80
2023-08-12T04:10:11.904Z,5.03
2023-08-12T04:11:08.721Z,5.20
2023-08-12T04:12:05.616Z,5.03
2023-08-12T04:13:02.254Z,4.50
2023-08-12T04:13:59.062Z,4.60
2023-08-12T04:14:55.756Z,4.90
2023-08-12T04:15:54.353Z,5.43
2023-08-12T04:16:51.256Z,4.40
2023-08-12T04:17:48.009Z,4.93
2023-08-12T04:18:44.686Z,5.13
2023-08-12T04:19:41.338Z,4.88
2023-08-12T04:20:39.480Z,5.10
2023-08-12T04:21:36.206Z,4.72
2023-08-12T04:22:33.036Z,5.00
2023-08-12T04:23:29.733Z,4.78
2023-08-12T04:24:26.400Z,4.75
2023-08-12T04:25:23.467Z,4.57
2023-08-12T04:26:20.240Z,4.93
2023-08-12T04:27:17.535Z,5.45
2023-08-12T04:28:15.255Z,4.65
2023-08-12T04:29:11.950Z,5.13
2023-08-12T04:30:09.225Z,5.28
2023-08-12T04:31:09.085Z,4.97
2023-08-12T04:32:06.288Z,4.57
2023-08-12T04:33:03.111Z,4.82
2023-08-12T04:33:59.782Z,4.75
2023-08-12T04:34:56.406Z,5.22
2023-08-12T04:35:54.090Z,4.55
2023-08-12T04:36:50.763Z,4.85
2023-08-12T04:37:47.451Z,5.00
2023-08-12T04:38:44.124Z,4.90
2023-08-12T04:39:41.457Z,5.38
2023-08-12T04:40:41.656Z,4.80
2023-08-12T04:41:39.540Z,4.95
2023-08-12T04:42:36.335Z,4.60
2023-08-12T04:43:33.132Z,4.40
2023-08-12T04:44:29.864Z,4.50
2023-08-12T04:45:27.341Z,5.25
2023-08-12T04:46:24.119Z,4.75
2023-08-12T04:47:20.881Z,4.80
2023-08-12T04:48:19.722Z,4.78
2023-08-12T04:49:16.426Z,4.93
2023-08-12T04:50:13.103Z,4.22
2023-08-12T04:51:09.793Z,4.25
2023-08-12T04:52:07.899Z,4.07
2023-08-12T04:53:04.993Z,4.47
2023-08-12T04:54:03.075Z,4.50
2023-08-12T04:54:59.836Z,4.30
2023-08-12T04:55:57.211Z,4.00
2023-08-12T04:56:53.953Z,5.03
2023-08-12T04:57:50.719Z,4.85
2023-08-12T04:58:47.409Z,4.95
2023-08-12T04:59:44.138Z,4.88
2023-08-12T05:00:40.940Z,4.00
2023-08-12T05:01:41.077Z,3.88
2023-08-12T05:02:44.890Z,4.25
2023-08-12T05:03:41.655Z,3.90
2023-08-12T05:04:38.351Z,4.00
2023-08-12T05:05:35.032Z,4.13
2023-08-12T05:06:31.742Z,4.50
2023-08-12T05:07:28.710Z,3.72
2023-08-12T05:08:25.453Z,4.45
2023-08-12T05:09:22.106Z,4.90
2023-08-12T05:10:19.650Z,4.18
2023-08-12T05:11:16.367Z,4.18
2023-08-12T05:12:13.737Z,3.97
2023-08-12T05:13:10.552Z,4.13
2023-08-12T05:14:07.260Z,3.88
2023-08-12T05:15:04.006Z,4.10
2023-08-12T05:16:00.868Z,4.20
2023-08-12T05:16:57.585Z,3.78
2023-08-12T05:17:54.274Z,3.53
2023-08-12T05:18:50.994Z,3.80
2023-08-12T05:19:47.686Z,4.13
2023-08-12T05:20:46.836Z,3.95
2023-08-12T05:21:44.111Z,3.90
2023-08-12T05:22:40.862Z,3.78
2023-08-12T05:23:37.513Z,3.83
2023-08-12T05:24:34.296Z,4.18
2023-08-12T05:25:30.950Z,4.10
2023-08-12T05:26:27.648Z,3.75
2023-08-12T05:27:24.397Z,3.80
2023-08-12T05:28:21.216Z,4.10
2023-08-12T05:29:17.953Z,3.92
2023-08-12T05:30:14.889Z,3.83
2023-08-12T05:31:11.680Z,3.97
2023-08-12T05:32:08.367Z,3.42
2023-08-12T05:33:05.884Z,3.72
2023-08-12T05:34:02.695Z,3.65
2023-08-12T05:34:59.423Z,4.00
2023-08-12T05:35:56.255Z,4.25
2023-08-12T05:36:52.892Z,3.80
2023-08-12T05:37:49.539Z,3.80
2023-08-12T05:38:46.288Z,4.18
2023-08-12T05:39:43.028Z,3.85
2023-08-12T05:40:39.739Z,4.00
2023-08-12T05:41:36.496Z,3.85
2023-08-12T05:42:33.143Z,4.00
2023-08-12T05:43:29.783Z,3.90
2023-08-12T05:44:26.601Z,3.78
2023-08-12T05:45:23.322Z,4.30
2023-08-12T05:46:20.122Z,3.88
2023-08-12T05:47:16.854Z,3.90
2023-08-12T05:48:13.567Z,3.80
2023-08-12T05:49:10.836Z,3.95
2023-08-12T05:50:08.056Z,4.22
2023-08-12T05:51:04.769Z,4.47
2023-08-12T05:52:01.694Z,4.20
2023-08-12T05:52:58.390Z,4.00
2023-08-12T05:53:55.090Z,4.18
2023-08-12T05:54:51.776Z,4.18
2023-08-12T05:55:48.424Z,3.75
2023-08-12T05:56:45.059Z,4.40
2023-08-12T05:57:41.843Z,4.03
2023-08-12T05:58:39.031Z,3.80
2023-08-12T05:59:35.709Z,3.90
2023-08-12T06:00:32.369Z,4.40
2023-08-12T06:01:29.107Z,4.07
2023-08-12T06:02:27.978Z,4.50
2023-08-12T06:03:24.891Z,4.20
2023-08-12T06:04:21.561Z,4.20
2023-08-12T06:05:18.282Z,4.00
2023-08-12T06:06:15.052Z,4.00
2023-08-12T06:07:11.784Z,3.97
2023-08-12T06:08:08.515Z,3.88
2023-08-12T06:09:05.553Z,4.18
2023-08-12T06:10:03.090Z,3.97
2023-08-12T06:10:59.736Z,4.10
2023-08-12T06:11:56.402Z,4.50
2023-08-12T06:12:53.043Z,4.25
2023-08-12T06:13:49.844Z,4.20
2023-08-12T06:14:46.630Z,4.15
2023-08-12T06:15:43.366Z,4.15
2023-08-12T06:16:40.148Z,4.70
2023-08-12T06:17:36.966Z,4.80
2023-08-12T06:18:34.329Z,4.97
2023-08-12T06:19:31.125Z,5.07
2023-08-12T06:20:27.919Z,4.97
2023-08-12T06:21:24.692Z,5.13
2023-08-12T06:22:21.452Z,5.10
2023-08-12T06:23:18.479Z,5.30
2023-08-12T06:24:15.109Z,5.45
2023-08-12T06:25:11.847Z,5.50
2023-08-12T06:26:08.570Z,4.97
2023-08-12T06:27:05.282Z,4.75
2023-08-12T06:28:02.711Z,5.47
2023-08-12T06:28:59.511Z,4.65
2023-08-12T06:29:56.187Z,5.68
2023-08-12T06:30:53.048Z,4.82
2023-08-12T06:31:49.792Z,4.57
2023-08-12T06:32:46.838Z,5.18
2023-08-12T06:33:43.554Z,5.40
2023-08-12T06:34:40.202Z,5.25
2023-08-12T06:35:36.856Z,5.07
2023-08-12T06:36:33.665Z,4.60
2023-08-12T06:37:30.429Z,4.93
2023-08-12T06:38:27.129Z,4.95
2023-08-12T06:39:23.817Z,5.50
2023-08-12T06:40:20.819Z,5.50
2023-08-12T06:41:17.482Z,4.20
2023-08-12T06:42:14.564Z,4.80
2023-08-12T06:43:11.802Z,4.85
2023-08-12T06:44:08.472Z,4.82
2023-08-12T06:45:05.706Z,4.90
2023-08-12T06:46:02.451Z,4.93
2023-08-12T06:46:59.153Z,4.45
2023-08-12T06:47:55.809Z,4.85
2023-08-12T06:48:52.432Z,4.90
2023-08-12T06:49:49.116Z,4.40
2023-08-12T06:50:46.529Z,4.40
2023-08-12T06:51:43.122Z,4.72
2023-08-12T06:52:39.802Z,4.47
2023-08-12T06:53:36.459Z,4.43
2023-08-12T06:54:33.190Z,4.90
2023-08-12T06:55:29.788Z,4.80
2023-08-12T06:56:26.443Z,4.55
2023-08-12T06:57:23.152Z,4.78
2023-08-12T06:58:19.794Z,4.63
2023-08-12T06:59:16.532Z,4.28
2023-08-12T07:00:13.651Z,4.28
2023-08-12T07:01:11.308Z,4.38
2023-08-12T07:02:09.976Z,4.35
2023-08-12T07:03:06.920Z,4.22
2023-08-12T07:04:03.852Z,4.60
2023-08-12T07:05:00.611Z,4.50
2023-08-12T07:05:57.571Z,4.07
2023-08-12T07:06:54.230Z,4.10
2023-08-12T07:07:51.051Z,4.50
2023-08-12T07:08:47.709Z,4.25
2023-08-12T07:09:44.667Z,4.00
2023-08-12T07:10:42.207Z,4.25
2023-08-12T07:11:39.415Z,4.50
2023-08-12T07:12:36.417Z,4.40
2023-08-12T07:13:34.694Z,4.15
2023-08-12T07:14:31.440Z,4.47
2023-08-12T07:15:28.147Z,4.40
2023-08-12T07:16:24.950Z,4.53
2023-08-12T07:17:21.577Z,4.10
2023-08-12T07:18:21.113Z,4.57
2023-08-12T07:19:17.730Z,4.80
2023-08-12T07:20:14.391Z,4.10
2023-08-12T07:21:11.173Z,4.57
2023-08-12T07:22:07.851Z,4.13
2023-08-12T07:23:04.750Z,4.32
2023-08-12T07:24:03.875Z,4.40
2023-08-12T07:25:01.246Z,4.20
2023-08-12T07:25:57.949Z,4.28
2023-08-12T07:26:54.566Z,4.53
2023-08-12T07:27:51.262Z,4.40
2023-08-12T07:28:47.979Z,3.92
2023-08-12T07:29:44.653Z,3.85
2023-08-12T07:30:41.304Z,3.60
2023-08-12T07:31:37.967Z,3.95
2023-08-12T07:32:35.014Z,3.50
2023-08-12T07:33:31.759Z,3.67
2023-08-12T07:34:31.344Z,4.00
2023-08-12T07:35:28.409Z,3.50
2023-08-12T07:36:25.243Z,3.47
2023-08-12T07:37:21.937Z,3.58
2023-08-12T07:38:18.980Z,3.70
2023-08-12T07:39:15.676Z,3.63
2023-08-12T07:40:13.696Z,3.92
2023-08-12T07:41:10.375Z,3.60
2023-08-12T07:42:07.014Z,3.50
2023-08-12T07:43:03.849Z,3.22
2023-08-12T07:44:00.643Z,3.65
2023-08-12T07:44:57.324Z,3.65
2023-08-12T07:46:08.361Z,4.07
2023-08-12T07:47:06.547Z,3.38
2023-08-12T07:48:03.408Z,3.67
2023-08-12T07:49:00.363Z,3.53
2023-08-12T07:49:56.995Z,3.38
2023-08-12T07:50:59.569Z,3.85
2023-08-12T07:51:56.634Z,4.20
2023-08-12T07:52:53.345Z,3.72
2023-08-12T07:53:50.096Z,3.70
2023-08-12T07:54:46.872Z,3.90
2023-08-12T07:55:43.905Z,3.90
2023-08-12T07:56:40.694Z,3.88
2023-08-12T07:57:37.329Z,3.78
2023-08-12T07:58:33.935Z,4.00
2023-08-12T07:59:30.626Z,3.55
2023-08-12T08:00:27.322Z,3.42
2023-08-12T08:01:23.959Z,3.72
2023-08-12T08:02:20.781Z,3.95
2023-08-12T08:03:19.838Z,3.53
2023-08-12T08:04:16.688Z,3.95
2023-08-12T08:05:13.552Z,4.28
2023-08-12T08:06:10.358Z,3.92
2023-08-12T08:07:07.123Z,3.63
2023-08-12T08:08:03.955Z,3.45
2023-08-12T08:09:04.122Z,3.97
2023-08-12T08:10:00.890Z,3.95
2023-08-12T08:10:57.560Z,4.45
2023-08-12T08:11:54.870Z,4.28
2023-08-12T08:12:52.934Z,4.20
2023-08-12T08:13:49.721Z,3.63
2023-08-12T08:14:46.494Z,3.75
2023-08-12T08:15:43.190Z,4.18
2023-08-12T08:16:41.578Z,4.30
2023-08-12T08:17:39.389Z,3.83
2023-08-12T08:18:36.205Z,4.20
2023-08-12T08:19:32.974Z,4.22
2023-08-12T08:20:29.644Z,4.00
2023-08-12T08:21:26.652Z,3.63
2023-08-12T08:22:23.368Z,3.47
2023-08-12T08:23:19.982Z,4.13
2023-08-12T08:24:17.029Z,3.78
2023-08-12T08:25:13.825Z,3.50
2023-08-12T08:26:10.832Z,3.80
2023-08-12T08:27:08.420Z,4.40
2023-08-12T08:28:05.220Z,3.60
2023-08-12T08:29:01.895Z,3.60
2023-08-12T08:29:58.517Z,3.83
2023-08-12T08:30:55.367Z,3.40
2023-08-12T08:31:52.001Z,3.28
2023-08-12T08:32:48.738Z,3.30
2023-08-12T08:33:45.669Z,3.08
2023-08-12T08:34:42.319Z,3.40
2023-08-12T08:35:39.351Z,3.70
2023-08-12T08:36:36.128Z,3.35
2023-08-12T08:37:33.061Z,3.58
2023-08-12T08:38:29.736Z,3.33
2023-08-12T08:39:27.455Z,3.67
2023-08-12T08:40:24.472Z,3.33
2023-08-12T08:41:21.776Z,3.30
2023-08-12T08:42:21.534Z,3.75
2023-08-12T08:43:23.376Z,3.65
2023-08-12T08:44:22.665Z,3.35
2023-08-12T08:45:19.405Z,3.08
2023-08-12T08:46:20.104Z,2.95
2023-08-12T08:47:20.706Z,3.05
2023-08-12T08:48:17.476Z,3.35
2023-08-12T08:50:13.580Z,3.22
2023-08-12T08:51:12.197Z,3.25
2023-08-12T08:52:08.947Z,3.35
2023-08-12T08:53:07.683Z,3.40
2023-08-12T08:54:07.325Z,3.17
2023-08-12T08:55:08.049Z,3.55
2023-08-12T08:56:14.819Z,3.10
2023-08-12T08:57:16.876Z,3.30
2023-08-12T08:58:22.374Z,3.30
2023-08-12T08:59:20.431Z,3.53
2023-08-12T09:00:19.047Z,3.17
2023-08-12T09:01:18.929Z,3.25
2023-08-12T09:02:19.792Z,3.38
2023-08-12T09:03:17.054Z,3.22
2023-08-12T09:04:19.332Z,3.42
2023-08-12T09:05:17.178Z,3.30
2023-08-12T09:06:14.273Z,3.53
2023-08-12T09:07:12.193Z,3.13
2023-08-12T09:08:12.198Z,3.38
2023-08-12T09:09:13.783Z,3.10
2023-08-12T09:10:14.846Z,3.05
2023-08-12T09:11:14.659Z,3.50
2023-08-12T09:12:15.066Z,2.90
2023-08-12T09:13:12.055Z,2.70
2023-08-12T09:14:09.758Z,3.05
2023-08-12T09:15:07.926Z,3.00
2023-08-12T09:16:05.598Z,3.10
2023-08-12T09:17:02.952Z,3.17
2023-08-12T09:18:00.210Z,3.17
2023-08-12T09:18:57.494Z,3.13
2023-08-12T09:19:54.196Z,3.20
2023-08-12T09:20:54.890Z,2.88
2023-08-12T09:21:57.262Z,2.80
2023-08-12T09:23:56.266Z,3.00
2023-08-12T09:24:59.426Z,2.67
2023-08-12T09:25:56.147Z,3.00
2023-08-12T09:26:56.676Z,2.97
2023-08-12T09:27:56.528Z,3.20
2023-08-12T09:28:55.261Z,2.80
2023-08-12T09:29:57.944Z,2.80
2023-08-12T09:30:54.684Z,3.00
2023-08-12T09:31:51.695Z,3.17
2023-08-12T09:33:05.166Z,3.65
2023-08-12T09:34:08.015Z,3.33
2023-08-12T09:35:06.974Z,3.22
2023-08-12T09:36:03.762Z,3.05
2023-08-12T09:37:00.759Z,2.78
2023-08-12T09:37:57.394Z,2.92
2023-08-12T09:38:54.466Z,2.60
2023-08-12T09:39:52.571Z,2.65
2023-08-12T09:40:49.545Z,2.55
2023-08-12T09:41:46.289Z,2.97
2023-08-12T09:42:47.038Z,3.00
2023-08-12T09:43:44.586Z,3.05
2023-08-12T09:44:42.309Z,2.70
2023-08-12T09:45:39.004Z,2.65
2023-08-12T09:46:35.755Z,2.90
2023-08-12T09:47:34.908Z,2.90
2023-08-12T09:48:31.775Z,2.80
2023-08-12T09:49:29.158Z,2.92
2023-08-12T09:50:26.796Z,2.80
2023-08-12T09:51:23.638Z,2.78
2023-08-12T09:52:20.394Z,2.97
2023-08-12T09:53:17.749Z,2.80
2023-08-12T09:54:17.408Z,2.97
2023-08-12T09:55:18.109Z,2.90
2023-08-12T09:56:18.453Z,2.50
2023-08-12T09:57:17.904Z,2.70
2023-08-12T09:58:18.710Z,2.50
2023-08-12T09:59:21.506Z,2.60
2023-08-12T10:00:19.637Z,2.67
2023-08-12T10:01:21.756Z,2.95
2023-08-12T10:02:20.307Z,2.45
2023-08-12T10:03:19.041Z,2.63
2023-08-12T10:04:19.741Z,2.60
2023-08-12T10:05:29.075Z,2.80
2023-08-12T10:06:26.146Z,2.58
2023-08-12T10:07:24.515Z,2.78
2023-08-12T10:08:21.693Z,2.63
2023-08-12T10:09:19.510Z,2.45
2023-08-12T10:10:16.802Z,2.80
2023-08-12T10:11:15.030Z,2.67
2023-08-12T10:12:14.668Z,2.83
2023-08-12T10:13:13.907Z,2.80
2023-08-12T10:14:11.573Z,2.70
2023-08-12T10:15:10.152Z,2.58
2023-08-12T10:16:07.338Z,2.58
2023-08-12T10:17:06.425Z,2.78
2023-08-12T10:18:08.193Z,2.95
2023-08-12T10:19:07.321Z,2.67
2023-08-12T10:20:05.747Z,2.70
2023-08-12T10:21:03.271Z,2.65
2023-08-12T10:22:00.924Z,2.47
2023-08-12T10:22:58.319Z,2.45
2023-08-12T10:23:55.281Z,2.50
2023-08-12T10:24:52.179Z,2.50
2023-08-12T10:25:54.257Z,2.78
2023-08-12T10:26:52.583Z,2.90
2023-08-12T10:27:49.814Z,2.60
2023-08-12T10:28:46.552Z,2.58
2023-08-12T10:29:47.656Z,2.47
2023-08-12T10:30:46.222Z,2.42
2023-08-12T10:31:45.841Z,2.22
2023-08-12T10:32:43.482Z,2.28
2023-08-12T10:33:42.210Z,2.65
2023-08-12T10:34:38.952Z,2.58
2023-08-12T10:36:01.751Z,2.85
2023-08-12T10:37:04.473Z,2.50
2023-08-12T10:38:09.553Z,2.40
2023-08-12T10:41:27.569Z,2.80
2023-08-12T10:42:45.085Z,2.50
2023-08-12T10:43:56.572Z,2.67
2023-08-12T10:44:53.391Z,2.65
2023-08-12T10:45:56.113Z,2.13
2023-08-12T10:46:54.207Z,2.58
2023-08-12T10:48:16.072Z,2.75
2023-08-12T10:49:12.804Z,2.50
2023-08-12T10:50:21.689Z,2.58
2023-08-12T10:51:18.357Z,2.40
2023-08-12T10:52:27.613Z,2.58
2023-08-12T10:53:33.081Z,2.47
2023-08-12T10:54:33.035Z,2.35
2023-08-12T10:55:29.665Z,2.70
2023-08-12T10:56:26.294Z,2.50
2023-08-12T10:57:50.501Z,2.40
2023-08-12T10:58:48.428Z,2.63
2023-08-12T10:59:48.026Z,2.38
2023-08-12T11:00:44.804Z,2.83
2023-08-12T11:01:41.483Z,2.78
2023-08-12T11:02:38.948Z,2.47
2023-08-12T11:03:38.951Z,2.50
2023-08-12T11:04:39.488Z,2.40
2023-08-12T11:05:39.546Z,2.28
2023-08-12T11:06:46.910Z,2.38
2023-08-12T11:07:46.086Z,2.60
2023-08-12T11:08:57.957Z,2.50
2023-08-12T11:09:54.871Z,2.58
2023-08-12T11:10:51.571Z,2.35
2023-08-12T11:11:59.664Z,2.40
2023-08-12T11:12:57.482Z,2.40
2023-08-12T11:13:58.055Z,2.50
2023-08-12T11:14:55.138Z,2.40
2023-08-12T11:15:51.812Z,2.55
2023-08-12T11:16:51.095Z,2.60
2023-08-12T11:17:48.341Z,2.50
2023-08-12T11:18:45.271Z,2.40
2023-08-12T11:19:45.029Z,2.53
2023-08-12T11:20:42.099Z,2.28
2023-08-12T11:21:39.677Z,2.40
2023-08-12T11:22:39.569Z,2.28
2023-08-12T11:23:37.631Z,2.10
2023-08-12T11:24:35.105Z,2.45
2023-08-12T11:25:33.282Z,2.58
2023-08-12T11:26:30.070Z,2.13
2023-08-12T11:27:26.744Z,2.20
2023-08-12T11:28:25.472Z,2.22
2023-08-12T11:29:22.206Z,2.30
2023-08-12T11:30:21.452Z,2.38
2023-08-12T11:31:19.714Z,2.40
2023-08-12T11:32:16.463Z,2.30
2023-08-12T11:33:13.503Z,1.92
2023-08-12T11:34:10.338Z,2.60
2023-08-12T11:35:08.718Z,2.50
2023-08-12T11:36:05.684Z,2.50
2023-08-12T11:37:06.678Z,2.40
2023-08-12T11:38:03.709Z,2.30
2023-08-12T11:39:00.392Z,2.22
2023-08-12T11:39:57.111Z,2.30
2023-08-12T11:40:53.752Z,2.20
2023-08-12T11:41:51.640Z,2.20
2023-08-12T11:42:50.219Z,2.47
2023-08-12T11:43:46.884Z,2.42
2023-08-12T11:44:43.606Z,2.30
2023-08-12T11:45:43.010Z,2.13
2023-08-12T11:46:39.726Z,2.67
2023-08-12T11:47:38.152Z,2.17
2023-08-12T11:48:34.874Z,2.30
2023-08-12T11:49:31.484Z,2.08
2023-08-12T11:50:28.806Z,2.15
2023-08-12T11:51:25.648Z,2.13
2023-08-12T11:52:22.647Z,2.20
2023-08-12T11:53:19.352Z,2.20
2023-08-12T11:54:17.801Z,2.20
2023-08-12T11:55:15.374Z,2.15
2023-08-12T11:56:12.349Z,2.22
2023-08-12T11:57:09.232Z,2.25
2023-08-12T11:58:05.976Z,2.67
2023-08-12T11:59:03.053Z,2.40
2023-08-12T12:00:01.187Z,2.38
2023-08-12T12:00:58.130Z,2.33
2023-08-12T12:01:55.963Z,2.38
2023-08-12T12:02:55.004Z,2.47
2023-08-12T12:03:55.147Z,1.90
2023-08-12T12:04:53.646Z,2.17
2023-08-12T12:05:50.341Z,2.28
2023-08-12T12:06:48.992Z,2.20
2023-08-12T12:07:45.768Z,2.42
2023-08-12T12:08:42.667Z,2.22
2023-08-12T12:09:44.692Z,2.28
2023-08-12T12:10:42.200Z,2.60
2023-08-12T12:11:39.272Z,2.60
2023-08-12T12:12:36.937Z,2.58
2023-08-12T12:13:33.604Z,2.30
2023-08-12T12:14:30.313Z,2.17
2023-08-12T12:15:27.124Z,2.25
2023-08-12T12:16:23.784Z,2.42
2023-08-12T12:17:22.682Z,2.40
2023-08-12T12:18:19.410Z,2.10
2023-08-12T12:19:24.011Z,2.65
2023-08-12T12:20:21.741Z,2.42
2023-08-12T12:21:22.926Z,2.10
2023-08-12T12:22:19.556Z,2.03
2023-08-12T12:23:19.518Z,2.50
2023-08-12T12:24:16.682Z,2.33
2023-08-12T12:25:15.076Z,2.17
2023-08-12T12:26:11.924Z,2.30
2023-08-12T12:27:08.544Z,2.10
2023-08-12T12:28:05.468Z,2.60
2023-08-12T12:29:04.517Z,2.47
2023-08-12T12:30:02.102Z,2.20
2023-08-12T12:30:58.852Z,2.28
2023-08-12T12:31:55.688Z,2.38
2023-08-12T12:32:52.997Z,2.15
2023-08-12T12:33:49.692Z,2.60
2023-08-12T12:34:47.763Z,2.30
2023-08-12T12:35:56.772Z,2.20
2023-08-12T12:36:55.740Z,2.20
2023-08-12T12:37:52.392Z,2.58
2023-08-12T12:38:49.026Z,2.38
2023-08-12T12:39:46.837Z,2.40
2023-08-12T12:40:43.448Z,2.30
2023-08-12T12:41:40.064Z,2.35
2023-08-12T12:42:36.801Z,2.10
2023-08-12T12:43:33.432Z,2.20
2023-08-12T12:44:30.155Z,2.15
2023-08-12T12:45:26.893Z,2.05
2023-08-12T12:46:24.058Z,2.15
2023-08-12T12:47:20.766Z,2.00
2023-08-12T12:48:17.401Z,1.95
2023-08-12T12:49:14.409Z,1.98
2023-08-12T12:50:11.069Z,2.05
2023-08-12T12:51:07.748Z,2.03
2023-08-12T12:52:04.587Z,2.10
2023-08-12T12:53:01.185Z,2.10
2023-08-12T12:53:58.175Z,1.92
2023-08-12T12:54:54.835Z,2.15
2023-08-12T12:55:51.649Z,1.98
2023-08-12T12:56:48.424Z,2.10